createdAt,value
2019-06-08T00:01:14.499Z,38.05
2019-06-08T00:03:46.045Z,36.95
2019-06-08T00:06:18.839Z,40.15
2019-06-08T00:08:50.418Z,38.25
2019-06-08T00:11:23.264Z,38.20
2019-06-08T00:13:55.219Z,38.80
2019-06-08T00:16:26.588Z,38.25
2019-06-08T00:18:58.170Z,36.98
2019-06-08T00:21:29.473Z,36.17
2019-06-08T00:24:01.048Z,29.30
2019-06-08T00:26:32.523Z,26.45
2019-06-08T00:29:03.881Z,27.42
2019-06-08T00:31:35.457Z,27.02
2019-06-08T00:34:07.052Z,28.35
2019-06-08T00:36:38.685Z,29.15
2019-06-08T00:39:10.629Z,29.98
2019-06-08T00:41:42.102Z,28.25
2019-06-08T00:44:13.550Z,27.93
2019-06-08T00:46:44.938Z,32.03
2019-06-08T00:49:16.482Z,34.58
2019-06-08T00:51:47.708Z,34.08
2019-06-08T00:54:19.554Z,36.03
2019-06-08T00:56:50.981Z,37.13
2019-06-08T00:59:22.590Z,41.73
2019-06-08T01:01:53.937Z,39.65
2019-06-08T01:04:26.932Z,41.95
2019-06-08T01:06:58.521Z,35.80
2019-06-08T01:09:31.203Z,39.30
2019-06-08T01:12:03.238Z,36.55
2019-06-08T01:14:34.647Z,35.90
2019-06-08T01:17:06.072Z,36.25
2019-06-08T01:19:37.384Z,36.98
2019-06-08T01:22:08.839Z,36.42
2019-06-08T01:24:40.234Z,34.48
2019-06-08T01:27:11.707Z,36.13
2019-06-08T01:29:43.063Z,34.40
2019-06-08T01:32:14.526Z,27.58
2019-06-08T01:34:45.902Z,27.82
2019-06-08T01:37:17.198Z,27.65
2019-06-08T01:39:48.583Z,26.97
2019-06-08T01:42:21.350Z,27.60
2019-06-08T01:44:52.965Z,24.02
2019-06-08T01:47:24.652Z,23.40
2019-06-08T01:49:56.421Z,23.32
2019-06-08T01:52:28.868Z,22.70
2019-06-08T01:55:00.236Z,23.18
2019-06-08T01:57:31.751Z,22.77
2019-06-08T02:00:28.718Z,23.52
2019-06-08T02:02:37.348Z,23.55
2019-06-08T02:05:09.550Z,22.73
2019-06-08T02:07:42.047Z,25.00
2019-06-08T02:10:15.302Z,25.75
2019-06-08T02:12:46.690Z,25.68
2019-06-08T02:15:19.119Z,29.00
2019-06-08T02:17:50.559Z,31.57
2019-06-08T02:20:22.137Z,30.50
2019-06-08T02:22:54.279Z,29.23
2019-06-08T02:25:29.430Z,29.05
2019-06-08T02:28:00.945Z,26.05
2019-06-08T02:30:36.116Z,25.85
2019-06-08T02:33:06.078Z,22.67
2019-06-08T02:35:37.953Z,19.82
2019-06-08T02:38:09.398Z,19.37
2019-06-08T02:40:40.841Z,21.20
2019-06-08T02:43:12.509Z,18.95
2019-06-08T02:45:44.048Z,17.87
2019-06-08T02:48:15.452Z,19.98
2019-06-08T02:50:55.492Z,18.48
2019-06-08T02:53:29.456Z,19.55
2019-06-08T02:56:02.596Z,16.93
2019-06-08T02:58:36.944Z,17.20
2019-06-08T03:01:09.585Z,18.85
2019-06-08T03:03:42.056Z,16.40
2019-06-08T03:06:15.723Z,17.57
2019-06-08T03:08:49.677Z,15.38
2019-06-08T03:11:21.891Z,16.80
2019-06-08T03:13:56.194Z,17.73
2019-06-08T03:16:27.646Z,18.65
2019-06-08T03:18:59.090Z,17.90
2019-06-08T03:21:31.405Z,16.52
2019-06-08T03:24:02.981Z,14.20
2019-06-08T03:26:34.399Z,14.80
2019-06-08T03:29:06.146Z,15.18
2019-06-08T03:31:45.783Z,13.25
2019-06-08T03:34:10.582Z,13.50
2019-06-08T03:36:53.813Z,12.50
2019-06-08T03:39:15.049Z,14.18
2019-06-08T03:41:46.504Z,13.93
2019-06-08T03:44:18.045Z,15.00
2019-06-08T03:46:49.469Z,15.32
2019-06-08T03:49:37.085Z,16.50
2019-06-08T03:51:53.995Z,16.55
2019-06-08T03:54:25.398Z,15.63
2019-06-08T03:56:56.761Z,15.28
2019-06-08T03:59:28.179Z,15.40
2019-06-08T04:01:59.576Z,15.25
2019-06-08T04:04:31.053Z,12.98
2019-06-08T04:07:02.503Z,12.45
2019-06-08T04:09:33.944Z,13.00
2019-06-08T04:12:06.567Z,11.60
2019-06-08T04:14:38.006Z,13.18
2019-06-08T04:17:10.845Z,13.18
2019-06-08T04:20:05.430Z,12.60
2019-06-08T04:22:15.577Z,13.10
2019-06-08T04:24:46.886Z,11.75
2019-06-08T04:27:18.389Z,11.93
2019-06-08T04:29:50.229Z,11.57
2019-06-08T04:32:21.714Z,12.50
2019-06-08T04:34:53.099Z,12.13
2019-06-08T04:37:24.394Z,12.15
2019-06-08T04:39:55.808Z,10.85
2019-06-08T04:42:27.336Z,9.70
2019-06-08T04:44:58.679Z,9.23
2019-06-08T04:47:30.180Z,8.75
2019-06-08T04:50:20.310Z,9.38
2019-06-08T04:52:34.577Z,8.80
2019-06-08T04:55:07.064Z,9.10
2019-06-08T04:57:39.398Z,8.85
2019-06-08T05:00:13.082Z,10.65
2019-06-08T05:02:46.998Z,10.43
2019-06-08T05:05:17.983Z,9.35
2019-06-08T05:07:50.340Z,9.48
2019-06-08T05:10:23.008Z,10.28
2019-06-08T05:12:54.429Z,9.90
2019-06-08T05:15:25.759Z,10.48
2019-06-08T05:17:57.213Z,12.25
2019-06-08T05:20:38.530Z,12.07
2019-06-08T05:23:01.644Z,12.18
2019-06-08T05:25:33.159Z,11.43
2019-06-08T05:28:04.626Z,11.80
2019-06-08T05:30:36.008Z,12.33
2019-06-08T05:33:07.426Z,12.05
2019-06-08T05:35:39.404Z,11.65
2019-06-08T05:38:10.826Z,12.85
2019-06-08T05:40:43.511Z,13.50
2019-06-08T05:43:15.083Z,13.03
2019-06-08T05:45:48.327Z,16.12
2019-06-08T05:48:19.564Z,17.82
2019-06-08T05:51:03.086Z,17.25
2019-06-08T05:53:24.093Z,16.23
2019-06-08T05:55:55.474Z,16.60
2019-06-08T05:58:27.117Z,16.87
2019-06-08T06:00:58.402Z,15.88
2019-06-08T06:03:29.750Z,16.05
2019-06-08T06:06:01.147Z,17.65
2019-06-08T06:08:32.462Z,17.23
2019-06-08T06:11:03.887Z,18.00
2019-06-08T06:13:35.234Z,17.15
2019-06-08T06:16:06.666Z,16.65
2019-06-08T06:18:38.184Z,17.12
2019-06-08T06:21:11.644Z,17.65
2019-06-08T06:23:43.151Z,17.52
2019-06-08T06:26:14.641Z,17.02
2019-06-08T06:28:46.034Z,17.07
2019-06-08T06:31:17.510Z,17.62
2019-06-08T06:33:50.052Z,17.02
2019-06-08T06:36:21.499Z,19.05
2019-06-08T06:38:53.091Z,19.48
2019-06-08T06:41:24.459Z,18.42
2019-06-08T06:43:55.958Z,18.45
2019-06-08T06:46:27.403Z,18.05
2019-06-08T06:48:59.067Z,18.75
2019-06-08T06:51:30.376Z,18.20
2019-06-08T06:54:01.818Z,17.17
2019-06-08T06:56:33.067Z,17.32
2019-06-08T06:59:04.660Z,17.67
2019-06-08T07:01:36.046Z,18.10
2019-06-08T07:04:07.473Z,18.15
2019-06-08T07:06:38.879Z,18.15
2019-06-08T07:09:10.357Z,17.20
2019-06-08T07:11:41.736Z,16.82
2019-06-08T07:14:13.248Z,16.37
2019-06-08T07:16:45.750Z,16.52
2019-06-08T07:19:17.331Z,16.95
2019-06-08T07:21:48.779Z,17.95
2019-06-08T07:24:20.239Z,17.67
2019-06-08T07:26:52.464Z,17.10
2019-06-08T07:29:24.766Z,15.35
2019-06-08T07:31:56.117Z,16.55
2019-06-08T07:34:27.562Z,16.42
2019-06-08T07:36:59.598Z,16.42
2019-06-08T07:39:30.959Z,17.40
2019-06-08T07:42:02.319Z,16.57
2019-06-08T07:44:33.680Z,17.73
2019-06-08T07:47:05.113Z,20.35
2019-06-08T07:49:36.545Z,17.82
2019-06-08T07:52:10.638Z,21.42
2019-06-08T07:54:40.786Z,16.27
2019-06-08T07:57:12.142Z,15.25
2019-06-08T07:59:43.449Z,15.50
2019-06-08T08:02:14.734Z,15.28
2019-06-08T08:04:46.168Z,14.90
2019-06-08T08:07:17.517Z,17.45
2019-06-08T08:09:48.924Z,16.32
2019-06-08T08:12:20.272Z,16.10
2019-06-08T08:14:53.173Z,17.30
2019-06-08T08:17:24.772Z,18.50
2019-06-08T08:19:57.310Z,16.77
2019-06-08T08:22:29.616Z,17.82
2019-06-08T08:25:04.645Z,17.70
2019-06-08T08:27:34.253Z,16.62
2019-06-08T08:30:08.175Z,16.17
2019-06-08T08:32:38.928Z,16.57
2019-06-08T08:35:10.475Z,17.07
2019-06-08T08:37:41.863Z,17.85
2019-06-08T08:40:13.457Z,18.25
2019-06-08T08:42:44.758Z,18.52
2019-06-08T08:45:18.287Z,18.90
2019-06-08T08:47:50.753Z,18.70
2019-06-08T08:50:22.565Z,17.52
2019-06-08T08:52:54.199Z,18.42
2019-06-08T08:55:27.855Z,19.27
2019-06-08T08:57:59.441Z,18.67
2019-06-08T09:00:31.893Z,18.30
2019-06-08T09:03:22.056Z,19.10
2019-06-08T09:05:38.169Z,17.45
2019-06-08T09:08:10.589Z,18.70
2019-06-08T09:10:43.127Z,18.73
2019-06-08T09:13:14.474Z,17.15
2019-06-08T09:15:47.866Z,19.82
2019-06-08T09:18:19.773Z,17.92
2019-06-08T09:20:52.346Z,18.65
2019-06-08T09:23:24.075Z,17.55
2019-06-08T09:26:03.953Z,18.80
2019-06-08T09:28:29.282Z,19.00
2019-06-08T09:31:02.792Z,17.40
2019-06-08T09:33:33.592Z,18.23
2019-06-08T09:36:05.762Z,19.37
2019-06-08T09:38:38.684Z,19.65
2019-06-08T09:41:10.125Z,21.05
2019-06-08T09:43:41.510Z,22.22
2019-06-08T09:46:12.934Z,21.00
2019-06-08T09:48:44.277Z,17.92
2019-06-08T09:51:16.633Z,20.45
2019-06-08T09:53:48.675Z,21.87
2019-06-08T09:56:20.300Z,23.27
2019-06-08T09:58:51.675Z,22.70
2019-06-08T10:01:23.011Z,25.00
2019-06-08T10:03:54.472Z,25.55
2019-06-08T10:06:26.285Z,24.55
2019-06-08T10:08:58.526Z,24.27
2019-06-08T10:11:29.905Z,24.85
2019-06-08T10:14:03.715Z,22.30
2019-06-08T10:16:34.258Z,22.17
2019-06-08T10:19:07.986Z,21.82
2019-06-08T10:21:42.738Z,23.20
2019-06-08T10:24:11.892Z,22.58
2019-06-08T10:26:43.409Z,19.05
2019-06-08T10:29:14.993Z,21.42
2019-06-08T10:31:48.359Z,21.00
2019-06-08T10:34:19.482Z,21.80
2019-06-08T10:36:50.865Z,21.23
2019-06-08T10:39:22.248Z,23.00
2019-06-08T10:41:53.742Z,19.85
2019-06-08T10:44:25.208Z,19.23
2019-06-08T10:46:58.981Z,15.90
2019-06-08T10:49:29.635Z,15.28
2019-06-08T10:52:03.467Z,16.75
2019-06-08T10:54:34.061Z,13.88
2019-06-08T10:57:07.448Z,15.63
2019-06-08T10:59:40.220Z,10.45
2019-06-08T11:02:13.991Z,9.98
2019-06-08T11:04:44.514Z,10.40
2019-06-08T11:07:16.572Z,10.45
2019-06-08T11:09:50.732Z,10.40
2019-06-08T11:12:22.243Z,10.32
2019-06-08T11:14:53.665Z,10.53
2019-06-08T11:17:27.784Z,10.82
2019-06-08T11:20:00.451Z,10.25
2019-06-08T11:22:30.962Z,10.25
2019-06-08T11:25:04.412Z,9.90
2019-06-08T11:27:38.646Z,9.65
2019-06-08T11:30:17.376Z,10.88
2019-06-08T11:32:42.050Z,10.45
2019-06-08T11:35:13.627Z,10.82
2019-06-08T11:37:44.974Z,9.28
2019-06-08T11:40:20.619Z,9.53
2019-06-08T11:42:51.125Z,9.73
2019-06-08T11:45:22.780Z,9.28
2019-06-08T11:47:54.129Z,9.08
2019-06-08T11:50:42.097Z,9.65
2019-06-08T11:53:14.926Z,9.40
2019-06-08T11:55:50.743Z,15.50
2019-06-08T11:58:22.825Z,16.82
2019-06-08T12:01:04.610Z,17.27
2019-06-08T12:03:38.539Z,15.98
2019-06-08T12:06:11.966Z,17.60
2019-06-08T12:08:41.924Z,14.55
2019-06-08T12:11:18.419Z,14.05
2019-06-08T12:13:47.430Z,14.07
2019-06-08T12:16:22.184Z,15.10
2019-06-08T12:18:51.833Z,13.85
2019-06-08T12:21:23.201Z,13.75
2019-06-08T12:23:54.569Z,14.23
2019-06-08T12:26:26.094Z,14.68
2019-06-08T12:28:58.020Z,14.07
2019-06-08T12:31:30.710Z,13.85
2019-06-08T12:34:02.140Z,10.93
2019-06-08T12:36:33.547Z,8.00
2019-06-08T12:39:06.056Z,8.35
2019-06-08T12:41:38.072Z,8.03
2019-06-08T12:44:12.299Z,7.45
2019-06-08T12:46:42.732Z,6.97
2019-06-08T12:49:14.702Z,5.58
2019-06-08T12:51:50.640Z,6.00
2019-06-08T12:54:20.801Z,7.25
2019-06-08T12:56:52.230Z,7.80
2019-06-08T12:59:23.691Z,7.17
2019-06-08T13:01:55.110Z,8.80
2019-06-08T13:04:28.435Z,8.33
2019-06-08T13:06:59.553Z,7.45
2019-06-08T13:09:31.104Z,5.35
2019-06-08T13:12:03.162Z,4.65
2019-06-08T13:14:35.129Z,4.75
2019-06-08T13:17:08.756Z,4.90
2019-06-08T13:19:39.587Z,5.67
2019-06-08T13:22:10.970Z,5.28
2019-06-08T13:24:42.373Z,5.30
2019-06-08T13:27:15.421Z,5.62
2019-06-08T13:29:48.810Z,5.55
2019-06-08T13:32:21.841Z,5.12
2019-06-08T13:34:52.870Z,4.83
2019-06-08T13:37:24.826Z,4.87
2019-06-08T13:39:58.904Z,4.72
2019-06-08T13:42:29.202Z,4.87
2019-06-08T13:45:00.493Z,4.60
2019-06-08T13:47:31.847Z,4.70
2019-06-08T13:50:03.306Z,3.95
2019-06-08T13:52:34.767Z,4.30
2019-06-08T13:55:06.674Z,3.67
2019-06-08T13:57:38.164Z,3.90
2019-06-08T14:00:11.405Z,4.10
2019-06-08T14:02:42.811Z,3.85
2019-06-08T14:05:18.091Z,3.55
2019-06-08T14:07:49.172Z,3.60
2019-06-08T14:10:24.512Z,3.30
2019-06-08T14:12:58.683Z,3.52
2019-06-08T14:15:31.539Z,3.80
2019-06-08T14:18:02.866Z,3.72
2019-06-08T14:20:34.658Z,4.12
2019-06-08T14:23:08.728Z,3.37
2019-06-08T14:25:50.117Z,4.12
2019-06-08T14:28:12.187Z,4.87
2019-06-08T14:30:43.461Z,5.03
2019-06-08T14:33:14.905Z,3.92
2019-06-08T14:35:46.611Z,3.50
2019-06-08T14:38:20.292Z,3.45
2019-06-08T14:40:50.975Z,3.15
2019-06-08T14:43:23.002Z,3.55
2019-06-08T14:45:54.414Z,3.30
2019-06-08T14:48:31.665Z,2.72
2019-06-08T14:50:58.944Z,2.60
2019-06-08T14:53:30.316Z,2.25
2019-06-08T14:56:08.352Z,2.20
2019-06-08T14:58:35.229Z,2.30
2019-06-08T15:01:07.870Z,2.47
2019-06-08T15:03:39.578Z,2.30
2019-06-08T15:06:10.955Z,2.20
2019-06-08T15:08:42.424Z,2.58
2019-06-08T15:11:13.824Z,2.10
2019-06-08T15:13:45.281Z,2.52
2019-06-08T15:16:18.174Z,2.40
2019-06-08T15:18:49.657Z,2.60
2019-06-08T15:21:23.090Z,2.65
2019-06-08T15:23:54.042Z,2.45
2019-06-08T15:26:33.653Z,2.55
2019-06-08T15:28:58.786Z,2.72
2019-06-08T15:31:31.527Z,2.40
2019-06-08T15:34:04.524Z,2.25
2019-06-08T15:36:38.048Z,3.33
2019-06-08T15:39:09.024Z,2.80
2019-06-08T15:41:40.507Z,2.45
2019-06-08T15:44:11.866Z,2.40
2019-06-08T15:46:43.274Z,2.30
2019-06-08T15:49:14.845Z,2.75
2019-06-08T15:51:48.091Z,2.62
2019-06-08T15:54:19.181Z,2.60
2019-06-08T15:56:52.245Z,2.87
2019-06-08T15:59:24.812Z,3.47
2019-06-08T16:01:56.363Z,3.15
2019-06-08T16:04:27.841Z,6.33
2019-06-08T16:06:59.307Z,4.35
2019-06-08T16:09:32.065Z,3.17
2019-06-08T16:12:03.603Z,2.90
2019-06-08T16:14:35.115Z,4.55
2019-06-08T16:17:07.554Z,11.33
2019-06-08T16:19:38.911Z,2.90
2019-06-08T16:22:10.224Z,2.60
2019-06-08T16:24:41.611Z,3.40
2019-06-08T16:27:12.887Z,3.37
2019-06-08T16:29:44.377Z,2.92
2019-06-08T16:32:15.740Z,2.90
2019-06-08T16:34:47.126Z,3.47
2019-06-08T16:37:18.614Z,2.67
2019-06-08T16:39:50.062Z,2.60
2019-06-08T16:42:22.422Z,2.40
2019-06-08T16:44:53.891Z,2.47
2019-06-08T16:47:25.456Z,2.50
2019-06-08T16:49:56.810Z,2.50
2019-06-08T16:52:28.478Z,2.30
2019-06-08T16:54:59.961Z,2.67
2019-06-08T16:57:35.080Z,2.35
2019-06-08T17:00:30.078Z,2.42
2019-06-08T17:02:39.589Z,2.55
2019-06-08T17:05:11.194Z,2.12
2019-06-08T17:07:42.626Z,2.25
2019-06-08T17:10:14.223Z,2.20
2019-06-08T17:12:45.639Z,2.40
2019-06-08T17:15:18.258Z,2.58
2019-06-08T17:17:49.569Z,2.30
2019-06-08T17:20:21.059Z,3.00
2019-06-08T17:22:52.801Z,2.30
2019-06-08T17:25:24.193Z,2.60
2019-06-08T17:27:55.579Z,2.10
2019-06-08T17:30:26.959Z,2.17
2019-06-08T17:32:58.532Z,1.98
2019-06-08T17:35:29.866Z,2.30
2019-06-08T17:38:01.175Z,2.20
2019-06-08T17:40:33.837Z,2.10
2019-06-08T17:43:05.493Z,2.70
2019-06-08T17:45:36.820Z,2.20
2019-06-08T17:48:08.196Z,2.33
2019-06-08T17:50:40.768Z,2.02
2019-06-08T17:53:12.065Z,13.20
2019-06-08T17:55:43.944Z,2.92
2019-06-08T17:58:15.386Z,2.70
2019-06-08T18:00:47.077Z,2.50
2019-06-08T18:03:18.520Z,2.10
2019-06-08T18:05:49.869Z,1.98
2019-06-08T18:08:21.300Z,3.35
2019-06-08T18:10:52.791Z,2.22
2019-06-08T18:13:24.153Z,2.45
2019-06-08T18:15:57.601Z,3.00
2019-06-08T18:18:31.478Z,2.60
2019-06-08T18:21:02.861Z,3.17
2019-06-08T18:23:34.308Z,4.28
2019-06-08T18:26:07.756Z,2.62
2019-06-08T18:28:42.282Z,2.83
2019-06-08T18:31:13.058Z,2.80
2019-06-08T18:33:45.749Z,3.25
2019-06-08T18:36:17.529Z,2.87
2019-06-08T18:38:48.884Z,2.62
2019-06-08T18:41:20.255Z,3.30
2019-06-08T18:43:52.686Z,3.70
2019-06-08T18:46:24.237Z,3.08
2019-06-08T18:48:57.457Z,3.55
2019-06-08T18:51:28.463Z,3.33
2019-06-08T18:54:11.774Z,3.00
2019-06-08T18:56:32.903Z,3.47
2019-06-08T18:59:04.341Z,3.10
2019-06-08T19:01:37.909Z,2.95
2019-06-08T19:04:08.722Z,2.70
2019-06-08T19:06:41.216Z,2.70
2019-06-08T19:09:13.115Z,3.02
2019-06-08T19:11:45.447Z,2.70
2019-06-08T19:14:17.916Z,2.65
2019-06-08T19:16:54.480Z,4.08
2019-06-08T19:19:23.511Z,2.50
2019-06-08T19:21:54.889Z,3.00
2019-06-08T19:24:28.025Z,2.77
2019-06-08T19:26:59.588Z,3.65
2019-06-08T19:29:30.955Z,2.70
2019-06-08T19:32:02.307Z,3.62
2019-06-08T19:34:33.732Z,3.85
2019-06-08T19:37:05.141Z,3.37
2019-06-08T19:39:38.070Z,3.70
2019-06-08T19:42:09.661Z,4.53
2019-06-08T19:44:48.558Z,4.67
2019-06-08T19:47:14.144Z,4.62
2019-06-08T19:49:47.732Z,3.98
2019-06-08T19:52:18.575Z,4.50
2019-06-08T19:54:53.711Z,3.50
2019-06-08T19:57:23.029Z,3.25
2019-06-08T19:59:54.411Z,3.30
2019-06-08T20:02:27.162Z,5.67
2019-06-08T20:04:59.089Z,4.03
2019-06-08T20:07:30.482Z,4.75
2019-06-08T20:10:02.883Z,6.22
2019-06-08T20:12:37.184Z,5.75
2019-06-08T20:15:09.484Z,4.87
2019-06-08T20:17:41.625Z,4.65
2019-06-08T20:20:13.192Z,4.53
2019-06-08T20:22:45.923Z,4.50
2019-06-08T20:25:17.960Z,3.30
2019-06-08T20:27:51.561Z,3.62
2019-06-08T20:30:23.074Z,2.90
2019-06-08T20:32:54.753Z,3.55
2019-06-08T20:35:28.071Z,4.03
2019-06-08T20:37:59.259Z,3.33
2019-06-08T20:40:30.673Z,3.55
2019-06-08T20:57:01.678Z,5.10
2019-06-08T20:59:34.301Z,5.00
2019-06-08T21:02:08.406Z,6.12
2019-06-08T21:04:40.024Z,8.90
2019-06-08T21:07:11.532Z,8.08
2019-06-08T21:09:44.850Z,5.80
2019-06-08T21:12:17.775Z,4.80
2019-06-08T21:14:51.137Z,4.90
2019-06-08T21:17:22.366Z,5.08
2019-06-08T21:19:55.593Z,5.25
2019-06-08T21:22:29.457Z,4.95
2019-06-08T21:25:01.344Z,5.33
2019-06-08T21:27:33.209Z,5.45
2019-06-08T21:30:11.880Z,4.80
2019-06-08T21:32:39.178Z,4.83
2019-06-08T21:35:10.799Z,4.60
2019-06-08T21:37:42.122Z,4.87
2019-06-08T21:40:13.474Z,4.97
2019-06-08T21:42:47.583Z,4.67
2019-06-08T21:45:19.040Z,4.87
2019-06-08T21:47:51.741Z,5.35
2019-06-08T21:50:23.566Z,4.67
2019-06-08T21:52:56.773Z,5.15
2019-06-08T21:55:28.555Z,5.47
2019-06-08T21:58:01.979Z,4.95
2019-06-08T22:00:42.743Z,4.78
2019-06-08T22:03:09.647Z,5.03
2019-06-08T22:05:42.855Z,5.17
2019-06-08T22:08:14.611Z,5.05
2019-06-08T22:10:47.134Z,5.45
2019-06-08T22:13:18.617Z,5.45
2019-06-08T22:15:51.602Z,5.58
2019-06-08T22:18:24.475Z,5.87
2019-06-08T22:20:59.515Z,5.72
2019-06-08T22:23:30.244Z,5.42
2019-06-08T22:26:03.559Z,5.97
2019-06-08T22:28:37.571Z,5.40
2019-06-08T22:31:08.457Z,5.85
2019-06-08T22:33:39.938Z,6.95
2019-06-08T22:36:12.732Z,6.05
2019-06-08T22:38:44.259Z,6.85
2019-06-08T22:41:17.387Z,6.60
2019-06-08T22:43:49.048Z,7.53
2019-06-08T22:46:21.741Z,6.20
2019-06-08T22:48:54.663Z,6.95
2019-06-08T22:51:27.665Z,6.40
2019-06-08T22:54:02.015Z,6.65
2019-06-08T22:56:33.524Z,6.45
2019-06-08T22:59:08.469Z,6.85
2019-06-08T23:01:39.004Z,7.03
2019-06-08T23:04:11.372Z,6.58
2019-06-08T23:06:42.922Z,6.70
2019-06-08T23:09:14.558Z,6.77
2019-06-08T23:11:47.089Z,6.47
2019-06-08T23:14:19.090Z,6.60
2019-06-08T23:16:50.796Z,6.40
2019-06-08T23:19:22.383Z,7.35
2019-06-08T23:21:53.682Z,8.30
2019-06-08T23:24:27.445Z,8.03
2019-06-08T23:26:58.491Z,7.23
2019-06-08T23:29:29.889Z,7.37
2019-06-08T23:32:04.368Z,6.87
2019-06-08T23:34:38.341Z,7.53
2019-06-08T23:37:12.666Z,8.10
2019-06-08T23:39:43.311Z,6.77
2019-06-08T23:42:14.970Z,6.43
2019-06-08T23:44:47.994Z,6.87
2019-06-08T23:47:19.619Z,6.70
2019-06-08T23:49:51.850Z,6.57
2019-06-08T23:52:23.234Z,6.83
2019-06-08T23:54:58.230Z,6.23
2019-06-08T23:57:29.348Z,6.67
